Time;durP1;ratioP1;P1;durP2;ratioP2;P2;SDS_P1;SDS_P2;PMS_P1;PMS_P2;Temp;Humidity;BMP_temperature;BMP_pressure;BME280_temperature;BME280_humidity;BME280_pressure;Samples;Min_cycle;Max_cycle;Signal;HPM_P1;HPM_P2
2023/02/11 07:03:16;;;;;;;;;82.75;61.50;;;;;;;;4950551;28;47367;-61
2023/02/11 07:05:42;;;;;;;;;82.00;61.25;;;;;;;;4958643;28;45666;-61
2023/02/11 07:08:07;;;;;;;;;82.25;61.25;;;;;;;;4956969;28;45505;-62
2023/02/11 07:10:32;;;;;;;;;77.25;60.25;;;;;;;;4955528;28;45511;-62
2023/02/11 07:12:58;;;;;;;;;80.50;61.50;;;;;;;;4958834;28;45476;-62
2023/02/11 07:15:23;;;;;;;;;77.00;61.00;;;;;;;;4958332;28;45514;-63
2023/02/11 07:17:48;;;;;;;;;76.75;61.75;;;;;;;;4959135;28;45518;-61
2023/02/11 07:20:13;;;;;;;;;78.25;60.00;;;;;;;;4958404;28;45426;-62
2023/02/11 07:22:39;;;;;;;;;79.50;58.00;;;;;;;;4959639;28;45663;-62
2023/02/11 07:25:04;;;;;;;;;79.75;60.25;;;;;;;;4959916;28;46325;-62
2023/02/11 07:27:29;;;;;;;;;74.75;59.25;;;;;;;;4960546;28;45379;-61
2023/02/11 07:29:55;;;;;;;;;73.75;57.50;;;;;;;;4960384;28;45565;-61
2023/02/11 07:32:20;;;;;;;;;78.00;62.00;;;;;;;;4958712;28;45778;-61
2023/02/11 07:34:47;;;;;;;;;83.00;61.25;;;;;;;;4959566;28;45484;-61
2023/02/11 07:37:12;;;;;;;;;83.50;62.50;;;;;;;;4959785;28;45600;-61
2023/02/11 07:39:37;;;;;;;;;78.00;61.00;;;;;;;;4960926;28;45437;-62
2023/02/11 07:42:03;;;;;;;;;76.00;59.50;;;;;;;;4959821;28;45322;-61
2023/02/11 07:44:28;;;;;;;;;81.50;63.50;;;;;;;;4991949;28;47155;-61
2023/02/11 07:46:53;;;;;;;;;81.00;61.75;;;;;;;;4960051;28;45468;-62
2023/02/11 07:49:18;;;;;;;;;78.50;61.00;;;;;;;;4960703;28;45595;-60
2023/02/11 07:51:44;;;;;;;;;81.75;63.75;;;;;;;;4960217;28;45333;-61
2023/02/11 07:54:10;;;;;;;;;83.25;63.50;;;;;;;;4959712;28;46207;-61
2023/02/11 07:56:35;;;;;;;;;81.50;60.00;;;;;;;;4960048;28;45417;-62
2023/02/11 07:59:02;;;;;;;;;76.50;60.25;;;;;;;;4960553;28;45455;-62
2023/02/11 08:01:27;;;;;;;;;79.25;59.75;;;;;;;;4970181;28;45515;-61
2023/02/11 08:03:53;;;;;;;;;78.25;62.00;;;;;;;;4971909;28;47128;-60
2023/02/11 08:06:19;;;;;;;;;81.50;60.25;;;;;;;;4979237;28;45417;-61
2023/02/11 08:08:44;;;;;;;;;74.75;59.25;;;;;;;;4979676;28;45399;-61
2023/02/11 08:11:30;;;;;;;;;76.75;58.25;;;;;;;;4978908;28;45515;-61
2023/02/11 08:13:55;;;;;;;;;79.25;61.00;;;;;;;;4979349;28;45431;-61
2023/02/11 08:16:20;;;;;;;;;79.25;60.50;;;;;;;;4978971;28;45527;-61
2023/02/11 08:18:46;;;;;;;;;79.25;61.50;;;;;;;;4978687;28;45483;-61
2023/02/11 08:21:11;;;;;;;;;77.75;60.00;;;;;;;;4965258;28;45489;-62
2023/02/11 08:23:37;;;;;;;;;76.50;60.25;;;;;;;;4957501;28;46114;-62
2023/02/11 08:26:03;;;;;;;;;77.00;59.75;;;;;;;;4978853;28;45444;-61
2023/02/11 08:28:28;;;;;;;;;75.25;60.75;;;;;;;;4979624;28;45434;-61
2023/02/11 08:30:54;;;;;;;;;76.50;57.50;;;;;;;;4972035;28;45458;-62
2023/02/11 08:33:19;;;;;;;;;73.25;56.50;;;;;;;;4976357;28;45618;-61
2023/02/11 08:35:44;;;;;;;;;79.75;64.00;;;;;;;;4977501;28;45519;-61
2023/02/11 08:38:09;;;;;;;;;76.50;60.75;;;;;;;;4973148;28;45342;-61
2023/02/11 08:40:34;;;;;;;;;76.00;63.00;;;;;;;;4973839;28;45397;-63
2023/02/11 08:43:00;;;;;;;;;82.50;65.50;;;;;;;;4976698;28;46137;-61
2023/02/11 08:45:25;;;;;;;;;78.75;61.50;;;;;;;;4976152;28;45517;-62
2023/02/11 08:47:50;;;;;;;;;77.50;60.00;;;;;;;;4974165;28;45497;-61
2023/02/11 08:50:15;;;;;;;;;77.00;60.25;;;;;;;;4992593;28;45579;-62
2023/02/11 08:52:41;;;;;;;;;79.75;61.50;;;;;;;;4978774;28;45470;-63
2023/02/11 08:55:07;;;;;;;;;74.50;59.50;;;;;;;;4978959;28;45400;-62
2023/02/11 08:57:32;;;;;;;;;78.75;58.50;;;;;;;;4976016;28;45594;-61
2023/02/11 08:59:57;;;;;;;;;76.75;59.25;;;;;;;;4977443;28;45448;-61
2023/02/11 09:02:22;;;;;;;;;83.50;69.25;;;;;;;;4975060;28;46320;-61
2023/02/11 09:04:48;;;;;;;;;79.50;62.50;;;;;;;;4976107;28;45499;-61
2023/02/11 09:07:13;;;;;;;;;77.75;62.00;;;;;;;;4978397;28;45404;-61
2023/02/11 09:09:38;;;;;;;;;75.25;60.00;;;;;;;;4977279;28;45317;-61
2023/02/11 09:12:03;;;;;;;;;80.25;59.75;;;;;;;;4977741;28;46802;-62
2023/02/11 09:14:29;;;;;;;;;81.25;60.50;;;;;;;;4978765;28;45430;-61
2023/02/11 09:16:54;;;;;;;;;78.75;63.00;;;;;;;;4973179;28;45384;-62
2023/02/11 09:19:19;;;;;;;;;87.75;67.75;;;;;;;;4972449;28;45560;-62
2023/02/11 09:21:45;;;;;;;;;80.75;65.00;;;;;;;;4974844;28;45388;-62
2023/02/11 09:24:10;;;;;;;;;86.50;68.00;;;;;;;;4976723;28;45494;-61
2023/02/11 09:26:35;;;;;;;;;77.25;66.25;;;;;;;;4976506;28;45483;-62
2023/02/11 09:29:01;;;;;;;;;78.25;63.50;;;;;;;;4978225;28;45505;-62
2023/02/11 09:31:27;;;;;;;;;75.50;59.25;;;;;;;;4973459;28;46122;-62
2023/02/11 09:33:54;;;;;;;;;78.00;62.75;;;;;;;;4978681;28;45351;-62
2023/02/11 09:36:27;;;;;;;;;79.00;64.25;;;;;;;;4975524;28;45449;-62
2023/02/11 09:38:53;;;;;;;;;83.00;66.75;;;;;;;;4976880;28;45399;-62
2023/02/11 09:41:21;;;;;;;;;89.50;68.25;;;;;;;;4976640;28;45977;-63
2023/02/11 09:43:48;;;;;;;;;79.50;63.25;;;;;;;;4978078;28;45437;-61
2023/02/11 09:46:14;;;;;;;;;79.50;62.75;;;;;;;;4977190;28;45554;-61
2023/02/11 09:48:41;;;;;;;;;80.50;66.50;;;;;;;;4977969;28;45634;-61
2023/02/11 09:51:14;;;;;;;;;80.50;65.00;;;;;;;;4976269;28;46214;-62
2023/02/11 09:53:41;;;;;;;;;75.75;60.25;;;;;;;;4976768;28;45744;-61
2023/02/11 09:56:10;;;;;;;;;104.00;80.00;;;;;;;;4974180;28;45475;-62
2023/02/11 09:58:37;;;;;;;;;85.00;69.00;;;;;;;;4977176;28;45388;-60
2023/02/11 10:01:02;;;;;;;;;83.25;67.50;;;;;;;;4978156;28;46275;-61
2023/02/11 10:03:47;;;;;;;;;70.50;57.00;;;;;;;;4974503;28;45773;-60
2023/02/11 10:06:18;;;;;;;;;101.50;82.00;;;;;;;;4972538;28;45497;-62
2023/02/11 10:08:57;;;;;;;;;77.50;65.75;;;;;;;;4977640;28;45403;-61
2023/02/11 10:11:41;;;;;;;;;77.75;60.50;;;;;;;;4968556;28;45716;-60
2023/02/11 10:14:07;;;;;;;;;80.00;65.00;;;;;;;;4976530;28;45434;-60
2023/02/11 10:16:50;;;;;;;;;79.25;65.25;;;;;;;;4992242;28;45453;-60
2023/02/11 10:19:45;;;;;;;;;76.50;62.25;;;;;;;;4977009;28;45416;-60
2023/02/11 10:22:17;;;;;;;;;72.50;57.25;;;;;;;;4974050;28;46442;-61
2023/02/11 10:24:49;;;;;;;;;66.00;53.25;;;;;;;;4975453;28;45580;-60
2023/02/11 10:27:16;;;;;;;;;70.25;55.75;;;;;;;;4976100;28;45400;-60
2023/02/11 10:30:04;;;;;;;;;68.25;54.50;;;;;;;;4975668;28;45424;-61
2023/02/11 10:32:50;;;;;;;;;72.00;55.50;;;;;;;;4975759;28;45580;-61
2023/02/11 10:35:18;;;;;;;;;73.50;58.25;;;;;;;;4989487;28;45566;-61
2023/02/11 10:37:43;;;;;;;;;69.25;55.25;;;;;;;;4972735;28;45758;-61
2023/02/11 10:40:28;;;;;;;;;66.75;52.75;;;;;;;;4991487;28;45568;-61
2023/02/11 10:42:59;;;;;;;;;64.50;51.00;;;;;;;;4989968;28;47551;-61
2023/02/11 10:45:35;;;;;;;;;65.75;49.75;;;;;;;;4976472;28;45417;-61
2023/02/11 10:48:05;;;;;;;;;63.75;50.00;;;;;;;;4975680;28;45472;-61
2023/02/11 10:50:33;;;;;;;;;60.75;48.00;;;;;;;;4973551;28;45410;-61
2023/02/11 10:53:15;;;;;;;;;63.25;49.75;;;;;;;;4976567;28;46317;-60
2023/02/11 10:55:48;;;;;;;;;59.00;48.00;;;;;;;;4968039;28;45398;-61
2023/02/11 10:58:20;;;;;;;;;56.50;44.75;;;;;;;;4976328;28;45477;-61
2023/02/11 11:00:49;;;;;;;;;69.50;52.25;;;;;;;;4975723;28;45405;-66
2023/02/11 11:03:19;;;;;;;;;67.50;52.25;;;;;;;;4976236;28;46090;-67
2023/02/11 11:05:47;;;;;;;;;71.75;55.25;;;;;;;;4976049;28;45710;-65
2023/02/11 11:08:12;;;;;;;;;62.25;50.25;;;;;;;;4975005;28;45354;-66
2023/02/11 11:10:42;;;;;;;;;64.50;51.50;;;;;;;;4974635;28;45569;-66
2023/02/11 11:13:33;;;;;;;;;65.50;50.00;;;;;;;;4971296;28;46383;-68
2023/02/11 11:16:06;;;;;;;;;66.75;52.75;;;;;;;;4974363;28;45523;-70
2023/02/11 11:18:31;;;;;;;;;68.25;53.25;;;;;;;;4975874;28;45554;-65
2023/02/11 11:20:58;;;;;;;;;69.00;56.75;;;;;;;;4969489;28;45682;-66
2023/02/11 11:23:23;;;;;;;;;64.50;52.50;;;;;;;;4967463;28;45800;-67
2023/02/11 11:25:58;;;;;;;;;67.50;53.25;;;;;;;;4982210;28;45415;-67
2023/02/11 11:28:24;;;;;;;;;64.75;51.50;;;;;;;;4972444;28;45554;-66
2023/02/11 11:30:51;;;;;;;;;65.00;51.75;;;;;;;;4974533;28;45468;-68
2023/02/11 11:33:24;;;;;;;;;67.00;53.00;;;;;;;;4973287;28;46858;-68
2023/02/11 11:35:58;;;;;;;;;63.25;50.25;;;;;;;;4970297;28;45648;-66
2023/02/11 11:38:23;;;;;;;;;58.50;47.75;;;;;;;;4972249;28;45492;-67
2023/02/11 11:41:08;;;;;;;;;65.00;49.25;;;;;;;;4977864;28;45456;-66
2023/02/11 11:43:36;;;;;;;;;58.50;47.75;;;;;;;;4977872;28;45756;-66
2023/02/11 11:46:01;;;;;;;;;63.25;49.75;;;;;;;;4974822;28;45752;-66
2023/02/11 11:48:30;;;;;;;;;59.75;46.00;;;;;;;;4976162;28;45511;-65
2023/02/11 11:50:57;;;;;;;;;57.25;46.75;;;;;;;;4977126;28;45356;-68
2023/02/11 11:53:41;;;;;;;;;59.75;47.75;;;;;;;;4975564;28;45529;-63
2023/02/11 11:56:12;;;;;;;;;61.00;47.75;;;;;;;;4974565;28;45469;-63
2023/02/11 11:58:37;;;;;;;;;54.75;43.25;;;;;;;;4978558;28;45528;-64
2023/02/11 12:01:29;;;;;;;;;51.25;42.00;;;;;;;;4977043;28;45418;-63
2023/02/11 12:03:57;;;;;;;;;49.50;40.25;;;;;;;;4978723;28;45622;-62
2023/02/11 12:06:38;;;;;;;;;49.75;40.25;;;;;;;;4979793;28;45801;-63
2023/02/11 12:09:12;;;;;;;;;47.25;41.00;;;;;;;;4976362;28;46160;-62
2023/02/11 12:11:57;;;;;;;;;51.50;41.50;;;;;;;;4976581;28;45840;-62
2023/02/11 12:14:25;;;;;;;;;50.75;41.75;;;;;;;;4976384;28;46259;-62
2023/02/11 12:16:58;;;;;;;;;44.00;36.00;;;;;;;;4979601;28;45436;-62
2023/02/11 12:19:44;;;;;;;;;46.67;38.33;;;;;;;;4979922;28;45382;-62
2023/02/11 12:22:11;;;;;;;;;50.00;39.67;;;;;;;;4967990;28;45648;-62
2023/02/11 12:24:49;;;;;;;;;48.67;41.33;;;;;;;;4978131;28;46324;-63
2023/02/11 12:27:20;;;;;;;;;41.00;33.00;;;;;;;;4980228;28;45409;-64
2023/02/11 12:29:46;;;;;;;;;41.67;35.00;;;;;;;;4978516;28;45401;-63
2023/02/11 12:32:26;;;;;;;;;42.67;35.00;;;;;;;;4979040;28;45540;-63
2023/02/11 12:35:06;;;;;;;;;43.00;35.00;;;;;;;;4978196;28;45582;-63
2023/02/11 12:37:34;;;;;;;;;33.67;30.00;;;;;;;;4977492;28;45457;-63
2023/02/11 12:40:18;;;;;;;;;27.33;23.33;;;;;;;;4980139;28;45371;-63
2023/02/11 12:45:46;;;;;;;;;18.67;18.67;;;;;;;;4977650;28;47215;-63
2023/02/11 12:48:11;;;;;;;;;24.33;22.67;;;;;;;;4977186;28;45395;-63
2023/02/11 12:50:48;;;;;;;;;25.33;24.67;;;;;;;;4973726;28;45396;-67
2023/02/11 12:53:19;;;;;;;;;23.67;22.00;;;;;;;;4981869;28;45406;-65
2023/02/11 12:55:47;;;;;;;;;23.67;22.67;;;;;;;;4978250;28;46312;-65
2023/02/11 12:58:18;;;;;;;;;26.67;22.33;;;;;;;;4979890;28;45502;-65
2023/02/11 13:00:52;;;;;;;;;23.67;20.67;;;;;;;;4975259;28;46331;-65
2023/02/11 13:03:21;;;;;;;;;27.00;23.00;;;;;;;;4977649;28;45527;-65
2023/02/11 13:05:51;;;;;;;;;20.00;20.00;;;;;;;;4978029;28;45553;-65
2023/02/11 13:08:19;;;;;;;;;24.33;22.33;;;;;;;;4976361;28;45492;-65
2023/02/11 13:10:47;;;;;;;;;23.33;22.33;;;;;;;;4976938;28;46234;-66
2023/02/11 13:13:24;;;;;;;;;24.67;23.33;;;;;;;;4978217;28;45388;-65
2023/02/11 13:16:15;;;;;;;;;36.67;31.67;;;;;;;;4977645;28;46273;-65
2023/02/11 13:18:48;;;;;;;;;27.33;26.00;;;;;;;;4974847;28;45578;-65
2023/02/11 13:21:13;;;;;;;;;21.00;21.00;;;;;;;;4977937;28;45547;-66
2023/02/11 13:23:38;;;;;;;;;24.67;24.67;;;;;;;;4976393;28;45388;-65
2023/02/11 13:26:11;;;;;;;;;16.00;16.00;;;;;;;;4978568;28;45680;-64
2023/02/11 13:28:50;;;;;;;;;19.00;15.00;;;;;;;;4973142;28;45812;-65
2023/02/11 13:31:18;;;;;;;;;18.33;17.00;;;;;;;;4977293;28;45547;-65
2023/02/11 13:33:44;;;;;;;;;18.67;17.33;;;;;;;;4978059;28;45483;-65
2023/02/11 13:36:14;;;;;;;;;15.00;14.00;;;;;;;;4976551;28;45626;-65
2023/02/11 13:38:40;;;;;;;;;17.00;15.67;;;;;;;;4977225;28;46671;-65
2023/02/11 13:41:14;;;;;;;;;21.00;19.67;;;;;;;;4977220;28;45321;-65
2023/02/11 13:43:39;;;;;;;;;29.00;24.67;;;;;;;;4976054;28;45462;-65
2023/02/11 13:46:05;;;;;;;;;28.33;28.33;;;;;;;;4976081;28;46174;-65
2023/02/11 13:48:35;;;;;;;;;33.33;23.33;;;;;;;;4976509;28;45419;-65
2023/02/11 13:51:02;;;;;;;;;28.00;26.67;;;;;;;;4989559;28;45542;-66
2023/02/11 13:53:29;;;;;;;;;24.67;23.67;;;;;;;;4990645;28;45901;-65
2023/02/11 13:56:08;;;;;;;;;19.33;17.33;;;;;;;;4977825;28;47184;-65
2023/02/11 13:58:36;;;;;;;;;22.33;18.00;;;;;;;;4989157;28;45426;-63
2023/02/11 14:01:01;;;;;;;;;22.33;19.33;;;;;;;;4978941;28;45675;-65
2023/02/11 14:09:00;;;;;;;;;23.67;21.00;;;;;;;;4972869;28;45163;-64
2023/02/11 14:11:31;;;;;;;;;20.33;20.00;;;;;;;;4976074;28;45432;-64
2023/02/11 14:14:01;;;;;;;;;16.33;15.00;;;;;;;;4975867;28;45645;-65
2023/02/11 14:16:26;;;;;;;;;20.67;20.67;;;;;;;;4977804;28;46140;-64
2023/02/11 14:18:54;;;;;;;;;18.33;17.67;;;;;;;;4974143;28;45415;-65
2023/02/11 14:21:21;;;;;;;;;21.67;17.00;;;;;;;;4975051;28;45528;-63
2023/02/11 14:23:47;;;;;;;;;18.00;17.00;;;;;;;;4977537;28;45513;-63
2023/02/11 14:26:18;;;;;;;;;23.00;23.00;;;;;;;;4977829;28;46043;-64
2023/02/11 14:28:45;;;;;;;;;24.00;21.00;;;;;;;;4972441;28;45499;-64
2023/02/11 14:31:17;;;;;;;;;21.00;18.33;;;;;;;;4971856;28;45511;-65
2023/02/11 14:34:01;;;;;;;;;18.67;18.00;;;;;;;;4977366;28;45484;-63
2023/02/11 14:36:45;;;;;;;;;20.33;19.33;;;;;;;;4975521;28;46979;-64
2023/02/11 14:39:29;;;;;;;;;19.00;19.00;;;;;;;;4977187;28;45408;-65
2023/02/11 14:41:54;;;;;;;;;21.33;18.67;;;;;;;;4972162;28;45478;-66
2023/02/11 14:44:27;;;;;;;;;20.67;19.67;;;;;;;;4990569;28;45594;-65
2023/02/11 14:46:53;;;;;;;;;22.00;20.00;;;;;;;;4975447;28;45498;-65
2023/02/11 14:49:30;;;;;;;;;22.67;21.33;;;;;;;;4976481;28;45518;-65
2023/02/11 14:51:59;;;;;;;;;22.33;21.00;;;;;;;;4967298;28;45560;-65
2023/02/11 14:54:26;;;;;;;;;24.33;21.33;;;;;;;;4973676;28;45625;-64
2023/02/11 14:57:04;;;;;;;;;25.00;22.67;;;;;;;;4975195;28;46225;-64
2023/02/11 14:59:29;;;;;;;;;26.67;24.67;;;;;;;;4977726;28;45977;-65
2023/02/11 15:01:55;;;;;;;;;23.33;21.33;;;;;;;;4976655;28;45412;-65
2023/02/11 15:04:23;;;;;;;;;29.33;26.00;;;;;;;;4976506;28;45631;-65
2023/02/11 15:06:48;;;;;;;;;26.33;23.67;;;;;;;;4976132;28;45372;-65
2023/02/11 15:09:19;;;;;;;;;22.67;21.67;;;;;;;;4977211;28;45330;-65
2023/02/11 15:11:46;;;;;;;;;28.33;26.67;;;;;;;;4976335;28;45473;-65
2023/02/11 15:14:21;;;;;;;;;34.33;32.33;;;;;;;;4977034;28;45598;-65
2023/02/11 15:16:46;;;;;;;;;46.00;38.67;;;;;;;;4975335;28;46027;-65
2023/02/11 15:19:23;;;;;;;;;41.00;36.00;;;;;;;;4976442;28;45496;-65
2023/02/11 15:21:49;;;;;;;;;31.67;30.33;;;;;;;;4979857;28;45507;-65
2023/02/11 15:24:34;;;;;;;;;36.00;32.67;;;;;;;;4980750;28;45298;-66
2023/02/11 15:26:59;;;;;;;;;34.33;30.67;;;;;;;;4974723;28;46162;-65
2023/02/11 15:29:26;;;;;;;;;36.33;33.00;;;;;;;;4977085;28;45206;-65
2023/02/11 15:32:05;;;;;;;;;32.33;29.33;;;;;;;;4973214;28;45533;-65
2023/02/11 15:34:31;;;;;;;;;26.00;24.67;;;;;;;;4980626;28;45874;-65
2023/02/11 15:36:56;;;;;;;;;35.67;31.33;;;;;;;;4981081;28;46201;-65
2023/02/11 15:39:33;;;;;;;;;32.67;30.33;;;;;;;;4978972;28;45640;-65
2023/02/11 15:42:17;;;;;;;;;33.33;31.33;;;;;;;;4975285;28;45306;-65
2023/02/11 15:44:42;;;;;;;;;35.33;31.67;;;;;;;;4977942;28;45724;-65
2023/02/11 15:47:09;;;;;;;;;37.33;31.33;;;;;;;;4979734;28;46938;-65
2023/02/11 15:49:34;;;;;;;;;41.67;36.00;;;;;;;;4977221;28;48640;-65
2023/02/11 15:51:59;;;;;;;;;32.67;29.67;;;;;;;;4979086;28;45535;-66
2023/02/11 15:54:28;;;;;;;;;38.00;33.33;;;;;;;;4979537;28;45603;-65
2023/02/11 15:56:57;;;;;;;;;40.33;32.67;;;;;;;;4979329;28;47116;-65
2023/02/11 15:59:29;;;;;;;;;31.00;28.33;;;;;;;;4979593;28;45540;-65
2023/02/11 16:01:56;;;;;;;;;30.67;30.33;;;;;;;;4976082;28;45400;-64
2023/02/11 16:04:23;;;;;;;;;29.00;26.00;;;;;;;;4977063;28;45464;-64
2023/02/11 16:06:50;;;;;;;;;28.67;27.33;;;;;;;;4984896;28;46340;-65
2023/02/11 16:09:15;;;;;;;;;32.33;27.67;;;;;;;;4978761;28;45378;-65
2023/02/11 16:11:46;;;;;;;;;30.00;28.67;;;;;;;;4977560;28;45357;-65
2023/02/11 16:14:26;;;;;;;;;32.33;29.67;;;;;;;;4976761;28;45388;-65
2023/02/11 16:16:57;;;;;;;;;42.50;34.75;;;;;;;;4979029;28;45542;-64
2023/02/11 16:19:24;;;;;;;;;26.67;25.00;;;;;;;;4977971;28;45516;-64
2023/02/11 16:21:49;;;;;;;;;35.00;30.33;;;;;;;;4979629;28;45490;-65
2023/02/11 16:24:18;;;;;;;;;35.00;29.33;;;;;;;;4979229;28;45324;-64
2023/02/11 16:26:46;;;;;;;;;41.67;32.67;;;;;;;;4975610;28;46023;-65
2023/02/11 16:29:13;;;;;;;;;32.00;28.00;;;;;;;;4977089;28;45384;-65
2023/02/11 16:31:40;;;;;;;;;29.67;25.67;;;;;;;;4976060;28;46108;-65
2023/02/11 16:34:16;;;;;;;;;28.33;23.33;;;;;;;;4979410;28;45526;-64
2023/02/11 16:36:41;;;;;;;;;24.33;22.67;;;;;;;;4992756;28;46517;-65
2023/02/11 16:39:07;;;;;;;;;28.33;24.00;;;;;;;;4974216;28;45827;-68
2023/02/11 16:41:32;;;;;;;;;24.33;22.33;;;;;;;;4977715;28;46105;-65
2023/02/11 16:43:57;;;;;;;;;20.00;19.33;;;;;;;;4978804;28;45367;-65
2023/02/11 16:46:23;;;;;;;;;23.67;20.33;;;;;;;;4978755;28;45454;-65
2023/02/11 16:48:48;;;;;;;;;22.33;20.00;;;;;;;;4974897;28;45413;-64
2023/02/11 16:51:13;;;;;;;;;25.33;20.33;;;;;;;;4979435;28;45443;-69
2023/02/11 16:53:38;;;;;;;;;28.00;22.67;;;;;;;;4977604;28;45573;-65
2023/02/11 16:56:04;;;;;;;;;21.67;18.33;;;;;;;;4973303;28;46406;-64
2023/02/11 16:58:29;;;;;;;;;23.00;19.00;;;;;;;;4976732;28;45719;-62
2023/02/11 17:00:55;;;;;;;;;15.33;15.00;;;;;;;;4978967;28;45384;-66
2023/02/11 17:03:23;;;;;;;;;18.33;16.00;;;;;;;;4979093;28;45681;-65
2023/02/11 17:05:49;;;;;;;;;15.67;14.67;;;;;;;;4971990;28;45640;-65
2023/02/11 17:08:14;;;;;;;;;21.33;19.33;;;;;;;;4976753;28;45384;-65
2023/02/11 17:10:40;;;;;;;;;19.67;16.67;;;;;;;;4977418;28;45423;-66
2023/02/11 17:13:05;;;;;;;;;23.33;14.00;;;;;;;;4974392;28;45590;-65
2023/02/11 17:15:31;;;;;;;;;16.00;15.00;;;;;;;;4978229;28;45635;-65
2023/02/11 17:17:56;;;;;;;;;17.00;15.00;;;;;;;;4976564;28;45827;-65
2023/02/11 17:20:21;;;;;;;;;13.33;12.33;;;;;;;;4978248;28;45384;-65
2023/02/11 17:22:46;;;;;;;;;15.33;14.33;;;;;;;;4976782;28;45538;-64
2023/02/11 17:25:12;;;;;;;;;17.67;16.00;;;;;;;;4970691;28;45575;-64
2023/02/11 17:27:37;;;;;;;;;20.33;17.33;;;;;;;;4977339;28;45698;-64
2023/02/11 17:30:02;;;;;;;;;17.00;15.67;;;;;;;;4978076;28;45443;-65
2023/02/11 17:32:28;;;;;;;;;16.33;12.67;;;;;;;;4975749;28;45681;-64
2023/02/11 17:34:53;;;;;;;;;20.00;15.00;;;;;;;;4978302;28;46094;-65
2023/02/11 17:37:18;;;;;;;;;21.67;19.00;;;;;;;;4970414;28;45533;-65
2023/02/11 17:39:43;;;;;;;;;16.67;15.67;;;;;;;;4975814;28;45556;-64
2023/02/11 17:42:10;;;;;;;;;22.33;19.67;;;;;;;;4978369;28;45551;-65
2023/02/11 17:44:36;;;;;;;;;20.00;20.00;;;;;;;;4977612;28;46078;-65
2023/02/11 17:47:01;;;;;;;;;29.00;28.00;;;;;;;;4977965;28;45541;-65
2023/02/11 17:49:26;;;;;;;;;20.00;19.67;;;;;;;;4978115;28;45469;-65
2023/02/11 17:51:52;;;;;;;;;23.00;22.33;;;;;;;;4978301;28;45431;-66
2023/02/11 17:54:17;;;;;;;;;18.00;17.67;;;;;;;;4977595;28;45913;-63
2023/02/11 17:56:43;;;;;;;;;24.67;21.67;;;;;;;;4977225;28;45486;-64
2023/02/11 17:59:09;;;;;;;;;21.33;18.33;;;;;;;;4978438;28;45226;-64
2023/02/11 18:01:35;;;;;;;;;17.67;17.33;;;;;;;;4977598;28;45683;-64
2023/02/11 18:04:01;;;;;;;;;22.00;21.00;;;;;;;;4978642;28;45403;-65
2023/02/11 18:06:27;;;;;;;;;19.67;19.33;;;;;;;;4978515;28;45329;-64
2023/02/11 18:08:56;;;;;;;;;25.00;23.67;;;;;;;;4978470;28;45514;-64
2023/02/11 18:11:22;;;;;;;;;24.00;22.33;;;;;;;;4978553;28;45449;-64
2023/02/11 18:13:53;;;;;;;;;23.00;22.00;;;;;;;;4975976;28;46140;-64
2023/02/11 18:16:18;;;;;;;;;28.33;22.00;;;;;;;;4975604;28;45410;-65
2023/02/11 18:18:43;;;;;;;;;26.33;23.33;;;;;;;;4974697;28;45626;-63
2023/02/11 18:21:12;;;;;;;;;24.00;21.33;;;;;;;;4978561;28;45616;-63
2023/02/11 18:23:37;;;;;;;;;24.67;23.33;;;;;;;;4976718;28;45770;-63
2023/02/11 18:26:05;;;;;;;;;27.67;24.00;;;;;;;;4978145;28;45482;-64
2023/02/11 18:28:31;;;;;;;;;24.67;23.33;;;;;;;;4977955;28;45497;-63
2023/02/11 18:30:59;;;;;;;;;25.00;23.67;;;;;;;;4975324;28;45379;-67
2023/02/11 18:33:25;;;;;;;;;21.33;21.33;;;;;;;;4977489;28;46144;-65
2023/02/11 18:35:50;;;;;;;;;27.33;24.33;;;;;;;;4974849;28;45437;-65
2023/02/11 18:38:17;;;;;;;;;27.67;25.67;;;;;;;;4965878;28;45578;-66
2023/02/11 18:40:45;;;;;;;;;24.33;20.67;;;;;;;;4976759;28;45601;-66
2023/02/11 18:43:10;;;;;;;;;26.67;25.00;;;;;;;;4976378;28;45475;-65
2023/02/11 18:45:35;;;;;;;;;28.33;27.33;;;;;;;;4968220;28;45659;-65
2023/02/11 18:48:03;;;;;;;;;31.67;25.00;;;;;;;;4973952;28;45440;-66
2023/02/11 18:50:28;;;;;;;;;27.67;24.00;;;;;;;;4980733;28;45523;-66
2023/02/11 18:52:54;;;;;;;;;29.00;24.33;;;;;;;;4980904;28;46014;-66
2023/02/11 18:55:24;;;;;;;;;26.00;25.33;;;;;;;;4979152;28;45423;-66
2023/02/11 18:57:50;;;;;;;;;26.33;25.00;;;;;;;;4977311;28;45400;-66
2023/02/11 19:00:15;;;;;;;;;27.00;27.00;;;;;;;;4973922;28;45445;-65
2023/02/11 19:02:41;;;;;;;;;28.67;25.67;;;;;;;;4986272;28;46077;-66
2023/02/11 19:05:06;;;;;;;;;30.00;26.00;;;;;;;;4978475;28;45768;-66
2023/02/11 19:07:31;;;;;;;;;28.67;24.67;;;;;;;;4979232;28;46533;-62
2023/02/11 19:09:57;;;;;;;;;22.67;21.67;;;;;;;;4980154;28;45509;-68
2023/02/11 19:12:22;;;;;;;;;22.00;21.67;;;;;;;;4976309;28;45548;-69
2023/02/11 19:14:48;;;;;;;;;27.33;25.00;;;;;;;;4979920;28;45447;-71
2023/02/11 19:17:13;;;;;;;;;21.00;19.33;;;;;;;;4981305;28;45443;-69
2023/02/11 19:19:39;;;;;;;;;22.00;21.00;;;;;;;;4978534;28;45813;-69
2023/02/11 19:22:05;;;;;;;;;20.00;15.33;;;;;;;;4980500;28;46225;-69
2023/02/11 19:24:30;;;;;;;;;22.67;20.33;;;;;;;;4980257;28;45535;-69
2023/02/11 19:26:57;;;;;;;;;25.00;22.33;;;;;;;;4980338;28;45432;-68
2023/02/11 19:29:23;;;;;;;;;26.00;22.67;;;;;;;;4977568;28;45550;-67
2023/02/11 19:31:48;;;;;;;;;15.67;15.00;;;;;;;;4974357;28;46204;-66
2023/02/11 19:34:15;;;;;;;;;19.67;18.67;;;;;;;;4979548;28;45445;-66
2023/02/11 19:36:40;;;;;;;;;22.67;17.33;;;;;;;;4980112;28;45584;-67
2023/02/11 19:39:05;;;;;;;;;20.33;18.00;;;;;;;;4980164;28;45353;-67
2023/02/11 19:41:32;;;;;;;;;17.00;15.00;;;;;;;;4979685;28;45459;-67
2023/02/11 19:43:57;;;;;;;;;16.33;14.67;;;;;;;;4980243;28;46285;-67
2023/02/11 19:46:24;;;;;;;;;19.67;16.00;;;;;;;;4983680;28;45542;-67
2023/02/11 19:48:49;;;;;;;;;17.33;15.33;;;;;;;;4994844;28;45552;-68
2023/02/11 19:51:15;;;;;;;;;15.00;15.00;;;;;;;;4980050;28;46951;-68
2023/02/11 19:53:41;;;;;;;;;16.67;15.67;;;;;;;;4981092;28;45396;-68
2023/02/11 19:56:06;;;;;;;;;17.67;17.33;;;;;;;;4980447;28;45814;-68
2023/02/11 19:58:32;;;;;;;;;20.33;18.67;;;;;;;;4980006;28;45650;-69
2023/02/11 20:01:23;;;;;;;;;20.00;18.67;;;;;;;;4979623;28;46192;-68
2023/02/11 20:03:49;;;;;;;;;28.00;24.67;;;;;;;;4976624;28;45723;-67
2023/02/11 20:06:17;;;;;;;;;27.67;25.00;;;;;;;;4974672;28;45461;-67
2023/02/11 20:08:43;;;;;;;;;32.00;31.33;;;;;;;;4977248;28;45502;-68
2023/02/11 20:11:13;;;;;;;;;27.00;25.33;;;;;;;;4978843;28;46204;-68
2023/02/11 20:13:39;;;;;;;;;34.33;28.67;;;;;;;;4979852;28;45491;-68
2023/02/11 20:16:05;;;;;;;;;36.33;30.33;;;;;;;;4979559;28;45469;-68
2023/02/11 20:18:30;;;;;;;;;34.67;32.33;;;;;;;;4975482;28;45899;-68
2023/02/11 20:20:55;;;;;;;;;49.67;37.33;;;;;;;;4978864;28;45516;-68
2023/02/11 20:23:21;;;;;;;;;38.33;33.00;;;;;;;;4971479;28;46148;-68
2023/02/11 20:25:46;;;;;;;;;43.00;37.00;;;;;;;;4978711;28;45686;-68
2023/02/11 20:28:11;;;;;;;;;49.33;37.33;;;;;;;;4976455;28;45464;-68
2023/02/11 20:30:37;;;;;;;;;41.33;35.00;;;;;;;;4976824;28;45601;-68
2023/02/11 20:33:03;;;;;;;;;40.00;33.67;;;;;;;;4973433;28;45493;-73
2023/02/11 20:35:28;;;;;;;;;48.00;38.67;;;;;;;;4975085;28;45562;-73
2023/02/11 20:37:53;;;;;;;;;45.33;37.67;;;;;;;;4972350;28;45575;-73
2023/02/11 20:40:18;;;;;;;;;48.67;39.67;;;;;;;;4976803;28;45436;-73
2023/02/11 20:42:43;;;;;;;;;50.00;41.00;;;;;;;;4976862;28;45459;-73
2023/02/11 20:45:09;;;;;;;;;41.25;36.00;;;;;;;;4978570;28;45318;-75
2023/02/11 20:47:35;;;;;;;;;49.25;38.50;;;;;;;;4972033;28;45452;-70
2023/02/11 20:50:00;;;;;;;;;38.00;34.33;;;;;;;;4977208;28;45675;-68
2023/02/11 20:52:27;;;;;;;;;31.00;29.00;;;;;;;;4977864;28;45492;-66
2023/02/11 20:54:52;;;;;;;;;33.00;31.67;;;;;;;;4978705;28;45482;-66
2023/02/11 20:57:17;;;;;;;;;42.50;35.25;;;;;;;;4972188;28;45577;-66
2023/02/11 20:59:43;;;;;;;;;43.00;37.50;;;;;;;;4978264;28;46396;-66
2023/02/11 21:02:08;;;;;;;;;47.25;40.00;;;;;;;;4977649;28;45624;-66
2023/02/11 21:04:34;;;;;;;;;35.67;32.33;;;;;;;;4971870;28;45505;-66
2023/02/11 21:07:00;;;;;;;;;32.67;29.33;;;;;;;;4971196;28;46249;-66
2023/02/11 21:09:27;;;;;;;;;31.33;28.00;;;;;;;;4978453;28;45304;-66
2023/02/11 21:11:53;;;;;;;;;33.00;25.67;;;;;;;;4971455;28;45530;-66
2023/02/11 21:14:19;;;;;;;;;28.33;25.67;;;;;;;;4979015;28;45428;-66
2023/02/11 21:16:45;;;;;;;;;26.00;23.00;;;;;;;;4977392;28;45638;-66
2023/02/11 21:19:10;;;;;;;;;28.67;25.00;;;;;;;;4977858;28;46212;-66
2023/02/11 21:21:36;;;;;;;;;31.00;25.67;;;;;;;;4977244;28;45491;-66
2023/02/11 21:24:01;;;;;;;;;30.67;27.33;;;;;;;;4979590;28;45616;-65
2023/02/11 21:26:26;;;;;;;;;37.33;30.00;;;;;;;;4979285;28;45627;-66
2023/02/11 21:28:53;;;;;;;;;31.00;28.00;;;;;;;;4975509;28;45594;-65
2023/02/11 21:31:23;;;;;;;;;34.67;30.67;;;;;;;;4973693;28;45813;-66
2023/02/11 21:33:49;;;;;;;;;33.00;29.33;;;;;;;;4974961;28;45491;-66